createdAt,value
2023-11-15T00:00:35.476Z,9.22
2023-11-15T00:03:22.588Z,9.23
2023-11-15T00:06:09.842Z,9.23
2023-11-15T00:08:56.877Z,9.26
2023-11-15T00:11:43.990Z,9.29
2023-11-15T00:14:31.012Z,9.31
2023-11-15T00:17:18.736Z,9.34
2023-11-15T00:20:06.614Z,9.36
2023-11-15T00:22:53.563Z,9.40
2023-11-15T00:25:41.273Z,9.43
2023-11-15T00:28:28.662Z,9.45
2023-11-15T00:31:16.258Z,9.46
2023-11-15T00:34:06.328Z,9.49
2023-11-15T00:36:56.024Z,9.51
2023-11-15T00:39:44.513Z,9.53
2023-11-15T00:42:32.017Z,9.53
2023-11-15T00:45:19.169Z,9.54
2023-11-15T00:48:06.695Z,9.54
2023-11-15T00:50:53.762Z,9.54
2023-11-15T00:53:40.751Z,9.51
2023-11-15T00:56:28.226Z,9.52
2023-11-15T00:59:15.232Z,9.53
2023-11-15T01:02:02.290Z,9.53
2023-11-15T01:04:51.661Z,9.52
2023-11-15T01:07:38.639Z,9.53
2023-11-15T01:10:26.159Z,9.53
2023-11-15T01:13:13.958Z,9.56
2023-11-15T01:16:01.812Z,9.55
2023-11-15T01:18:49.278Z,9.53
2023-11-15T01:21:36.271Z,9.54
2023-11-15T01:24:23.345Z,9.53
2023-11-15T01:27:10.349Z,9.50
2023-11-15T01:29:57.426Z,9.52
2023-11-15T01:32:44.498Z,9.53
2023-11-15T01:35:31.672Z,9.52
2023-11-15T01:38:18.706Z,9.51
2023-11-15T01:41:07.657Z,9.50
2023-11-15T01:43:54.837Z,9.51
2023-11-15T01:46:43.201Z,9.49
2023-11-15T01:49:30.225Z,9.48
2023-11-15T01:52:18.457Z,9.47
2023-11-15T01:55:07.916Z,9.45
2023-11-15T01:57:54.933Z,9.42
2023-11-15T02:00:42.671Z,9.40
2023-11-15T02:03:30.061Z,9.36
2023-11-15T02:06:18.125Z,9.34
2023-11-15T02:09:06.584Z,9.32
2023-11-15T02:11:54.387Z,9.30
2023-11-15T02:14:42.985Z,9.28
2023-11-15T02:17:30.252Z,9.27
2023-11-15T02:20:17.624Z,9.23
2023-11-15T02:23:05.845Z,9.24
2023-11-15T02:25:53.016Z,9.22
2023-11-15T02:31:42.382Z,9.18
2023-11-15T02:34:29.342Z,9.16
2023-11-15T02:37:16.594Z,9.12
2023-11-15T02:40:10.582Z,9.11
2023-11-15T02:42:57.911Z,9.11
2023-11-15T02:45:45.120Z,9.08
2023-11-15T02:48:33.434Z,9.07
2023-11-15T02:51:20.584Z,9.08
2023-11-15T02:54:08.019Z,9.05
2023-11-15T02:56:55.035Z,8.99
2023-11-15T02:59:42.223Z,9.04
2023-11-15T03:02:29.337Z,9.03
2023-11-15T03:05:17.737Z,9.00
2023-11-15T03:08:06.747Z,8.98
2023-11-15T03:10:53.787Z,8.99
2023-11-15T03:13:40.763Z,8.96
2023-11-15T03:16:27.796Z,8.95
2023-11-15T03:19:14.892Z,8.94
2023-11-15T03:22:02.064Z,8.93
2023-11-15T03:24:49.547Z,8.91
2023-11-15T03:27:36.532Z,8.93
2023-11-15T03:30:23.799Z,8.91
2023-11-15T03:33:11.789Z,8.92
2023-11-15T03:35:59.100Z,8.82
2023-11-15T03:38:46.107Z,8.90
2023-11-15T03:41:33.199Z,8.87
2023-11-15T03:44:20.134Z,8.86
2023-11-15T03:47:07.162Z,8.83
2023-11-15T03:49:54.122Z,8.83
2023-11-15T03:52:41.045Z,8.73
2023-11-15T03:55:28.002Z,8.81
2023-11-15T03:58:16.131Z,8.79
2023-11-15T04:01:03.750Z,8.76
2023-11-15T04:03:50.862Z,8.77
2023-11-15T04:06:37.875Z,8.77
2023-11-15T04:09:25.068Z,8.75
2023-11-15T04:12:12.932Z,8.75
2023-11-15T04:15:01.916Z,8.73
2023-11-15T04:17:49.727Z,8.74
2023-11-15T04:20:36.695Z,8.73
2023-11-15T04:23:25.682Z,8.73
2023-11-15T04:26:12.964Z,8.72
2023-11-15T04:28:59.938Z,8.71
2023-11-15T04:31:46.928Z,8.72
2023-11-15T04:34:34.023Z,8.72
2023-11-15T04:37:22.134Z,8.72
2023-11-15T04:40:10.435Z,8.72
2023-11-15T04:42:57.558Z,8.71
2023-11-15T04:45:44.524Z,8.70
2023-11-15T04:48:31.646Z,8.67
2023-11-15T04:51:19.011Z,8.66
2023-11-15T04:54:07.025Z,8.64
2023-11-15T04:56:54.031Z,8.64
2023-11-15T04:59:41.030Z,8.63
2023-11-15T05:02:30.623Z,8.62
2023-11-15T05:05:17.790Z,8.61
2023-11-15T05:08:04.875Z,8.62
2023-11-15T05:10:51.813Z,8.61
2023-11-15T05:13:38.720Z,8.60
2023-11-15T05:16:25.742Z,8.60
2023-11-15T05:19:12.725Z,8.61
2023-11-15T05:21:59.600Z,8.58
2023-11-15T05:24:46.529Z,8.60
2023-11-15T05:27:34.205Z,8.60
2023-11-15T05:30:21.396Z,8.60
2023-11-15T05:33:09.618Z,8.59
2023-11-15T05:35:57.705Z,8.59
2023-11-15T05:38:44.699Z,8.58
2023-11-15T05:41:31.724Z,8.57
2023-11-15T05:44:18.731Z,8.57
2023-11-15T05:47:05.775Z,8.49
2023-11-15T05:49:53.704Z,8.56
2023-11-15T05:52:40.816Z,8.56
2023-11-15T05:55:28.286Z,8.57
2023-11-15T05:58:15.462Z,8.56
2023-11-15T06:01:02.391Z,8.56
2023-11-15T06:03:49.798Z,8.56
2023-11-15T06:06:36.933Z,8.55
2023-11-15T06:09:24.601Z,8.53
2023-11-15T06:12:12.251Z,8.52
2023-11-15T06:14:59.198Z,8.53
2023-11-15T06:17:47.001Z,8.52
2023-11-15T06:20:34.096Z,8.52
2023-11-15T06:23:21.081Z,8.53
2023-11-15T06:26:11.089Z,8.53
2023-11-15T06:28:57.994Z,8.53
2023-11-15T06:31:44.981Z,8.52
2023-11-15T06:34:32.028Z,8.52
2023-11-15T06:37:19.191Z,8.51
2023-11-15T06:40:09.293Z,8.50
2023-11-15T06:42:56.434Z,8.50
2023-11-15T06:45:43.495Z,8.49
2023-11-15T06:48:30.532Z,8.48
2023-11-15T06:51:17.491Z,8.44
2023-11-15T06:54:05.068Z,8.45
2023-11-15T06:56:52.283Z,8.43
2023-11-15T06:59:39.224Z,8.40
2023-11-15T07:02:26.605Z,8.35
2023-11-15T07:05:14.482Z,8.38
2023-11-15T07:08:01.389Z,8.37
2023-11-15T07:10:49.000Z,8.35
2023-11-15T07:13:36.063Z,8.35
2023-11-15T07:16:23.008Z,8.33
2023-11-15T07:19:10.107Z,8.33
2023-11-15T07:21:58.095Z,8.29
2023-11-15T07:24:45.658Z,8.32
2023-11-15T07:27:35.544Z,8.25
2023-11-15T07:30:23.231Z,8.29
2023-11-15T07:33:10.307Z,8.24
2023-11-15T07:35:57.585Z,8.29
2023-11-15T07:38:44.872Z,8.29
2023-11-15T07:41:33.828Z,8.30
2023-11-15T07:44:27.088Z,8.32
2023-11-15T07:47:15.880Z,8.33
2023-11-15T07:50:06.536Z,8.32
2023-11-15T07:52:53.823Z,8.33
2023-11-15T07:55:41.374Z,8.33
2023-11-15T07:58:28.281Z,8.34
2023-11-15T08:01:16.087Z,8.36
2023-11-15T08:04:03.228Z,8.37
2023-11-15T08:06:50.428Z,8.41
2023-11-15T08:09:37.499Z,8.42
2023-11-15T08:12:27.301Z,8.45
2023-11-15T08:15:16.063Z,8.48
2023-11-15T08:18:03.392Z,8.51
2023-11-15T08:20:50.568Z,8.53
2023-11-15T08:23:38.954Z,8.54
2023-11-15T08:26:25.898Z,8.60
2023-11-15T08:29:13.293Z,8.64
2023-11-15T08:32:00.234Z,8.69
2023-11-15T08:34:48.064Z,8.71
2023-11-15T08:37:35.009Z,8.92
2023-11-15T08:40:28.819Z,9.15
2023-11-15T08:43:18.484Z,9.43
2023-11-15T08:46:05.542Z,9.73
2023-11-15T08:48:53.308Z,10.04
2023-11-15T08:51:41.954Z,10.32
2023-11-15T08:54:29.052Z,10.61
2023-11-15T08:57:16.570Z,10.98
2023-11-15T09:00:04.661Z,11.35
2023-11-15T09:02:51.845Z,11.74
2023-11-15T09:05:40.484Z,12.09
2023-11-15T09:08:27.565Z,12.53
2023-11-15T09:11:14.781Z,12.97
2023-11-15T09:14:01.730Z,13.35
2023-11-15T09:16:48.704Z,13.80
2023-11-15T09:19:35.654Z,14.12
2023-11-15T09:22:22.572Z,14.32
2023-11-15T09:25:12.676Z,14.48
2023-11-15T09:28:01.517Z,14.64
2023-11-15T09:30:50.578Z,14.91
2023-11-15T09:33:37.661Z,15.10
2023-11-15T09:36:24.825Z,15.27
2023-11-15T09:39:12.042Z,15.32
2023-11-15T09:41:58.936Z,15.33
2023-11-15T09:44:47.473Z,15.36
2023-11-15T09:47:35.585Z,15.43
2023-11-15T09:50:26.276Z,15.59
2023-11-15T09:53:13.618Z,15.72
2023-11-15T09:56:00.924Z,15.85
2023-11-15T09:58:49.633Z,16.00
2023-11-15T10:01:43.593Z,16.04
2023-11-15T10:04:30.593Z,16.08
2023-11-15T10:07:26.930Z,16.10
2023-11-15T10:10:21.378Z,16.10
2023-11-15T10:13:17.969Z,16.00
2023-11-15T10:16:24.369Z,15.82
2023-11-15T10:19:28.568Z,15.59
2023-11-15T10:22:18.951Z,15.41
2023-11-15T10:25:07.529Z,15.25
2023-11-15T10:28:14.212Z,15.06
2023-11-15T10:31:08.935Z,14.88
2023-11-15T10:33:59.016Z,14.67
2023-11-15T10:37:03.133Z,14.39
2023-11-15T10:39:51.031Z,14.25
2023-11-15T10:42:38.861Z,14.01
2023-11-15T10:45:31.260Z,13.79
2023-11-15T10:48:23.707Z,13.63
2023-11-15T10:51:20.624Z,13.40
2023-11-15T10:54:10.433Z,13.34
2023-11-15T10:57:01.879Z,13.25
2023-11-15T10:59:49.693Z,13.14
2023-11-15T11:02:41.954Z,13.05
2023-11-15T11:06:17.900Z,12.98
2023-11-15T11:09:14.230Z,12.84
2023-11-15T11:12:12.594Z,12.82
2023-11-15T11:15:29.578Z,12.73
2023-11-15T11:18:19.348Z,12.69
2023-11-15T11:21:09.743Z,12.67
2023-11-15T11:24:12.312Z,12.62
2023-11-15T11:27:17.895Z,12.56
2023-11-15T11:30:14.789Z,12.54
2023-11-15T11:33:20.754Z,12.46
2023-11-15T11:36:50.485Z,12.44
2023-11-15T11:39:47.195Z,12.42
2023-11-15T11:42:34.228Z,12.40
2023-11-15T11:45:24.322Z,12.40
2023-11-15T11:48:19.741Z,12.41
2023-11-15T11:51:08.341Z,12.43
2023-11-15T11:53:56.904Z,12.44
2023-11-15T11:56:49.988Z,12.44
2023-11-15T11:59:37.029Z,12.45
2023-11-15T12:02:36.169Z,12.37
2023-11-15T12:05:25.894Z,12.38
2023-11-15T12:08:15.588Z,12.40
2023-11-15T12:11:02.581Z,12.45
2023-11-15T12:13:52.171Z,12.39
2023-11-15T12:16:40.403Z,12.46
2023-11-15T12:19:27.848Z,12.48
2023-11-15T12:22:15.987Z,12.53
2023-11-15T12:25:04.492Z,12.57
2023-11-15T12:27:52.664Z,12.60
2023-11-15T12:30:40.029Z,12.77
2023-11-15T12:33:28.209Z,12.82
2023-11-15T12:36:16.658Z,12.90
2023-11-15T12:39:04.191Z,12.95
2023-11-15T12:41:54.242Z,13.04
2023-11-15T12:44:45.416Z,13.09
2023-11-15T12:47:32.506Z,13.27
2023-11-15T12:50:22.234Z,13.36
2023-11-15T12:53:11.834Z,13.39
2023-11-15T12:55:59.904Z,13.39
2023-11-15T12:58:47.948Z,13.35
2023-11-15T13:01:36.185Z,13.32
2023-11-15T13:04:23.615Z,13.27
2023-11-15T13:07:11.012Z,13.22
2023-11-15T13:09:57.959Z,13.15
2023-11-15T13:12:44.929Z,13.11
2023-11-15T13:15:31.927Z,13.07
2023-11-15T13:18:19.808Z,13.02
2023-11-15T13:21:08.692Z,13.02
2023-11-15T13:23:55.843Z,13.01
2023-11-15T13:26:44.517Z,12.99
2023-11-15T13:29:32.722Z,12.96
2023-11-15T13:32:20.526Z,12.97
2023-11-15T13:35:09.335Z,13.00
2023-11-15T13:38:01.069Z,12.99
2023-11-15T13:40:47.971Z,12.98
2023-11-15T13:43:35.702Z,13.00
2023-11-15T13:46:29.606Z,13.06
2023-11-15T13:49:16.727Z,13.08
2023-11-15T13:52:03.646Z,13.22
2023-11-15T13:54:50.505Z,13.26
2023-11-15T13:57:39.134Z,13.29
2023-11-15T14:00:29.408Z,13.34
2023-11-15T14:03:16.490Z,13.39
2023-11-15T14:06:06.814Z,13.45
2023-11-15T14:08:58.799Z,13.52
2023-11-15T14:11:52.618Z,13.53
2023-11-15T14:14:40.155Z,13.60
2023-11-15T14:17:28.735Z,13.68
2023-11-15T14:20:23.893Z,13.76
2023-11-15T14:23:14.152Z,13.82
2023-11-15T14:26:01.125Z,13.84
2023-11-15T14:28:49.190Z,13.85
2023-11-15T14:31:39.490Z,13.83
2023-11-15T14:34:29.952Z,13.84
2023-11-15T14:37:17.162Z,13.85
2023-11-15T14:40:07.652Z,13.83
2023-11-15T14:42:56.873Z,13.76
2023-11-15T14:45:44.305Z,13.78
2023-11-15T14:48:31.635Z,13.72
2023-11-15T14:51:21.090Z,13.60
2023-11-15T14:54:10.318Z,13.60
2023-11-15T14:56:57.706Z,13.54
2023-11-15T14:59:46.200Z,13.48
2023-11-15T15:02:33.333Z,13.39
2023-11-15T15:05:22.828Z,13.31
2023-11-15T15:08:12.154Z,13.21
2023-11-15T15:10:59.810Z,13.12
2023-11-15T15:13:46.706Z,13.00
2023-11-15T15:16:34.070Z,12.88
2023-11-15T15:19:22.322Z,12.79
2023-11-15T15:22:09.460Z,12.69
2023-11-15T15:24:56.476Z,12.60
2023-11-15T15:27:43.595Z,12.50
2023-11-15T15:30:34.006Z,12.41
2023-11-15T15:33:21.884Z,12.30
2023-11-15T15:36:10.522Z,12.20
2023-11-15T15:38:58.179Z,12.12
2023-11-15T15:41:45.234Z,12.05
2023-11-15T15:44:32.168Z,11.98
2023-11-15T15:47:19.706Z,11.92
2023-11-15T15:50:08.362Z,11.87
2023-11-15T15:52:56.231Z,11.79
2023-11-15T15:55:44.068Z,11.73
2023-11-15T15:58:31.893Z,11.69
2023-11-15T16:01:18.834Z,11.63
2023-11-15T16:04:06.151Z,11.58
2023-11-15T16:06:53.396Z,11.49
2023-11-15T16:09:42.628Z,11.41
2023-11-15T16:12:30.132Z,11.37
2023-11-15T16:15:18.207Z,11.31
2023-11-15T16:18:05.522Z,11.25
2023-11-15T16:20:52.494Z,11.20
2023-11-15T16:23:39.469Z,11.16
2023-11-15T16:26:27.424Z,11.11
2023-11-15T16:29:17.620Z,11.06
2023-11-15T16:32:04.932Z,11.01
2023-11-15T16:34:52.376Z,10.96
2023-11-15T16:37:42.826Z,10.91
2023-11-15T16:40:30.284Z,10.87
2023-11-15T16:43:19.406Z,10.80
2023-11-15T16:46:08.864Z,10.73
2023-11-15T16:48:55.887Z,10.63
2023-11-15T16:51:43.331Z,10.63
2023-11-15T16:54:32.509Z,10.59
2023-11-15T16:57:19.567Z,10.56
2023-11-15T17:00:09.567Z,10.50
2023-11-15T17:02:56.616Z,10.47
2023-11-15T17:05:43.620Z,10.40
2023-11-15T17:08:30.592Z,10.36
2023-11-15T17:11:18.528Z,10.29
2023-11-15T17:14:06.558Z,10.24
2023-11-15T17:16:53.546Z,10.19
2023-11-15T17:19:40.454Z,10.14
2023-11-15T17:22:27.952Z,10.06
2023-11-15T17:25:19.777Z,10.02
2023-11-15T17:28:10.071Z,9.96
2023-11-15T17:30:57.443Z,9.92
2023-11-15T17:33:46.430Z,9.85
2023-11-15T17:36:35.786Z,9.81
2023-11-15T17:39:22.894Z,9.78
2023-11-15T17:42:11.209Z,9.75
2023-11-15T17:44:59.571Z,9.72
2023-11-15T17:47:46.579Z,9.68
2023-11-15T17:50:33.513Z,9.64
2023-11-15T17:53:20.501Z,9.61
2023-11-15T17:56:08.338Z,9.56
2023-11-15T17:58:55.308Z,9.51
2023-11-15T18:01:43.096Z,9.48
2023-11-15T18:04:30.078Z,9.42
2023-11-15T18:07:17.015Z,9.37
2023-11-15T18:10:06.824Z,9.33
2023-11-15T18:12:53.985Z,9.29
2023-11-15T18:15:40.965Z,9.26
2023-11-15T18:18:27.983Z,9.20
2023-11-15T18:21:15.040Z,9.19
2023-11-15T18:24:02.181Z,9.16
2023-11-15T18:26:49.281Z,9.13
2023-11-15T18:29:36.239Z,9.10
2023-11-15T18:32:23.191Z,9.06
2023-11-15T18:35:10.698Z,9.04
2023-11-15T18:37:58.984Z,9.00
2023-11-15T18:40:47.848Z,8.97
2023-11-15T18:43:34.909Z,8.94
2023-11-15T18:46:21.960Z,8.89
2023-11-15T18:49:10.357Z,8.86
2023-11-15T18:51:59.220Z,8.84
2023-11-15T18:54:46.119Z,8.82
2023-11-15T18:57:33.468Z,8.80
2023-11-15T19:00:22.911Z,8.78
2023-11-15T19:03:10.046Z,8.76
2023-11-15T19:05:57.307Z,8.75
2023-11-15T19:08:44.309Z,8.74
2023-11-15T19:11:32.244Z,8.72
2023-11-15T19:14:19.420Z,8.69
2023-11-15T19:17:07.772Z,8.69
2023-11-15T19:19:54.865Z,8.67
2023-11-15T19:22:41.978Z,8.66
2023-11-15T19:25:28.880Z,8.64
2023-11-15T19:28:17.116Z,8.64
2023-11-15T19:31:05.588Z,8.64
2023-11-15T19:33:54.847Z,8.61
2023-11-15T19:36:41.853Z,8.58
2023-11-15T19:39:28.772Z,8.57
2023-11-15T19:42:16.106Z,8.55
2023-11-15T19:45:05.182Z,8.53
2023-11-15T19:47:52.359Z,8.50
2023-11-15T19:50:39.702Z,8.49
2023-11-15T19:53:27.106Z,8.49
2023-11-15T19:56:14.021Z,8.48
2023-11-15T19:59:01.129Z,8.49
2023-11-15T20:01:48.892Z,8.49
2023-11-15T20:04:36.115Z,8.47
2023-11-15T20:07:23.168Z,8.48
2023-11-15T20:10:10.468Z,8.45
2023-11-15T20:12:59.100Z,8.45
2023-11-15T20:15:48.490Z,8.42
2023-11-15T20:18:35.572Z,8.39
2023-11-15T20:21:23.600Z,8.36
2023-11-15T20:24:10.727Z,8.34
2023-11-15T20:26:58.144Z,8.30
2023-11-15T20:29:45.223Z,8.25
2023-11-15T20:32:34.033Z,8.24
2023-11-15T20:35:21.291Z,8.18
2023-11-15T20:38:08.260Z,8.14
2023-11-15T20:40:55.169Z,8.08
2023-11-15T20:43:42.079Z,8.02
2023-11-15T20:46:29.042Z,7.97
2023-11-15T20:49:16.275Z,7.92
2023-11-15T20:52:04.844Z,7.88
2023-11-15T20:54:51.800Z,7.84
2023-11-15T20:57:39.702Z,7.81
2023-11-15T21:00:27.117Z,7.78
2023-11-15T21:03:14.434Z,7.75
2023-11-15T21:06:01.469Z,7.74
2023-11-15T21:08:48.887Z,7.71
2023-11-15T21:11:39.005Z,7.74
2023-11-15T21:14:28.142Z,7.73
2023-11-15T21:17:15.386Z,7.75
2023-11-15T21:20:11.177Z,7.74
2023-11-15T21:22:59.703Z,7.75
2023-11-15T21:25:46.742Z,7.76
2023-11-15T21:28:34.599Z,7.74
2023-11-15T21:31:22.810Z,7.74
2023-11-15T21:34:09.859Z,7.75
2023-11-15T21:37:06.032Z,7.76
2023-11-15T21:39:57.087Z,7.77
2023-11-15T21:42:48.446Z,7.75
2023-11-15T21:45:35.620Z,7.76
2023-11-15T21:48:23.212Z,7.75
2023-11-15T21:51:10.153Z,7.76
2023-11-15T21:54:00.680Z,7.73
2023-11-15T21:56:47.644Z,7.76
2023-11-15T21:59:34.751Z,7.76
2023-11-15T22:02:21.623Z,7.76
2023-11-15T22:05:10.579Z,7.76
2023-11-15T22:07:57.612Z,7.77
2023-11-15T22:10:44.670Z,7.78
2023-11-15T22:13:31.650Z,7.77
2023-11-15T22:16:18.654Z,7.78
2023-11-15T22:19:05.558Z,7.78
2023-11-15T22:21:52.478Z,7.79
2023-11-15T22:24:39.460Z,7.78
2023-11-15T22:27:26.721Z,7.78
2023-11-15T22:30:14.162Z,7.78
2023-11-15T22:33:01.229Z,7.77
2023-11-15T22:35:50.949Z,7.76
2023-11-15T22:38:37.856Z,7.75
2023-11-15T22:41:24.833Z,7.74
2023-11-15T22:44:11.728Z,7.67
2023-11-15T22:46:58.717Z,7.67
2023-11-15T22:49:46.776Z,7.66
2023-11-15T22:52:34.613Z,7.63
2023-11-15T22:55:21.545Z,7.63
2023-11-15T22:58:08.528Z,7.57
2023-11-15T23:00:55.467Z,7.55
2023-11-15T23:03:43.202Z,7.50
2023-11-15T23:06:31.266Z,7.46
2023-11-15T23:09:19.443Z,7.40
2023-11-15T23:12:06.509Z,7.36
2023-11-15T23:14:54.342Z,7.31
2023-11-15T23:17:41.726Z,7.27
2023-11-15T23:20:30.720Z,7.24
2023-11-15T23:23:17.882Z,7.21
2023-11-15T23:26:05.555Z,7.19
2023-11-15T23:28:55.281Z,7.14
2023-11-15T23:31:43.936Z,7.12
2023-11-15T23:34:30.937Z,7.09
2023-11-15T23:37:17.888Z,7.05
2023-11-15T23:40:05.722Z,7.00
2023-11-15T23:42:55.130Z,6.96
2023-11-15T23:45:44.802Z,6.90
2023-11-15T23:48:32.458Z,6.88
2023-11-15T23:51:19.454Z,6.84
2023-11-15T23:54:06.937Z,6.83
2023-11-15T23:56:56.327Z,6.77
2023-11-15T23:59:43.376Z,6.77
